Marlin, Texas
Current Conditions -  °F | °C
As of 10:51 PM on Thursday 23 Oct 2014 (Local Time) from KCNW Reporting Station
Clear Clear  
Wind Chill: 64°   Ceiling: Unl
Heat Index: 64°   Visibility: 10mi
Dew Point: 57°   Wind: 0mph
Humidity: 77%   Direction: NA
Pressure: 30.12"   Gusts: NA
Location:  31.31°N, 96.9°W
Report Text: KCNW 240351Z 00000KT 10SM SKC 18/14 A3012
Loading
Personal Weather Stations






























Interactive Weather Map
Tropical Storm Tracking
New forecast layout! Learn more

10-Day Weather Forecast

Advertisements
Track Severe Weather on mobile